Time;durP1;ratioP1;P1;durP2;ratioP2;P2;SDS_P1;SDS_P2;PMS_P1;PMS_P2;Temp;Humidity;BMP_temperature;BMP_pressure;BME280_temperature;BME280_humidity;BME280_pressure;Samples;Min_cycle;Max_cycle;Signal;HPM_P1;HPM_P2
2023/08/17 00:00:39;;;;;;;6.70;5.60;;;;;;;22.08;68.37;99469.61;105649;1256;74186;-22
2023/08/17 00:03:06;;;;;;;5.80;4.20;;;;;;;21.98;68.64;99469.61;105593;1256;73086;-23
2023/08/17 00:05:33;;;;;;;4.40;3.90;;;;;;;22.45;68.52;99467.19;105609;1256;61072;-22
2023/08/17 00:08:01;;;;;;;6.20;4.90;;;;;;;23.01;66.72;99468.09;105524;1257;61101;-22
2023/08/17 00:10:28;;;;;;;7.70;5.20;;;;;;;23.11;65.92;99464.02;105575;1260;71772;-22
2023/08/17 00:12:55;;;;;;;10.10;5.00;;;;;;;22.99;65.79;99463.47;105647;1257;74357;-23
2023/08/17 00:15:22;;;;;;;6.30;5.80;;;;;;;22.79;66.06;99468.62;105638;1255;73230;-23
2023/08/17 00:17:49;;;;;;;8.20;5.70;;;;;;;22.58;66.55;99470.73;105655;1257;61013;-22
2023/08/17 00:20:16;;;;;;;8.50;6.10;;;;;;;22.38;67.07;99471.02;105451;1256;61169;-22
2023/08/17 00:22:44;;;;;;;8.50;6.40;;;;;;;22.18;67.77;99474.89;105608;1256;72978;-23
2023/08/17 00:25:10;;;;;;;8.60;6.10;;;;;;;22.00;68.44;99473.58;105623;1256;74747;-22
2023/08/17 00:27:37;;;;;;;6.10;4.20;;;;;;;21.86;69.12;99475.81;105607;1256;72652;-22
2023/08/17 00:30:05;;;;;;;7.50;4.70;;;;;;;22.26;69.09;99473.69;105507;1255;61174;-23
2023/08/17 00:32:32;;;;;;;5.30;4.50;;;;;;;22.76;67.36;99475.14;105507;1261;61198;-23
2023/08/17 00:34:59;;;;;;;6.10;4.90;;;;;;;22.84;66.69;99474.98;105619;1257;72957;-23
2023/08/17 00:37:27;;;;;;;8.80;5.40;;;;;;;22.72;66.61;99471.93;105590;1257;74395;-22
2023/08/17 00:39:55;;;;;;;8.80;6.10;;;;;;;22.54;66.88;99470.27;105570;1256;72693;-23
2023/08/17 00:42:22;;;;;;;10.30;6.90;;;;;;;22.34;67.34;99470.31;105584;1256;61208;-23
2023/08/17 00:44:49;;;;;;;8.00;7.20;;;;;;;22.12;68.04;99473.00;105622;1259;61065;-23
2023/08/17 00:47:15;;;;;;;9.60;6.50;;;;;;;21.92;68.58;99470.77;105525;1256;72836;-22
2023/08/17 00:49:43;;;;;;;7.60;6.20;;;;;;;21.75;69.08;99470.89;105604;1257;74515;-22
2023/08/17 00:52:10;;;;;;;4.90;4.40;;;;;;;21.65;69.78;99470.64;105292;1256;72374;-22
2023/08/17 00:54:37;;;;;;;6.20;4.50;;;;;;;22.08;69.66;99473.36;105491;1257;61221;-22
2023/08/17 00:57:06;;;;;;;6.00;4.90;;;;;;;22.60;67.95;99475.27;105298;1259;61059;-23
2023/08/17 00:59:33;;;;;;;8.10;5.40;;;;;;;22.67;67.27;99475.41;105137;1257;73021;-22
2023/08/17 01:02:03;;;;;;;8.40;5.80;;;;;;;22.49;67.41;99473.52;105299;1257;74326;-22
2023/08/17 01:04:31;;;;;;;6.60;5.90;;;;;;;22.26;67.95;99472.38;105546;1256;72742;-22
2023/08/17 01:06:58;;;;;;;6.90;6.00;;;;;;;22.04;68.50;99471.90;105677;1256;61052;-22
2023/08/17 01:09:27;;;;;;;11.60;6.20;;;;;;;21.81;69.11;99471.23;105355;1256;61045;-22
2023/08/17 01:12:02;;;;;;;7.70;6.00;;;;;;;21.60;69.99;99472.09;105387;1256;72976;-23
2023/08/17 01:15:02;;;;;;;7.30;4.10;;;;;;;21.42;70.95;99474.04;105568;1257;74241;-23
2023/08/17 01:17:52;;;;;;;5.30;4.60;;;;;;;21.92;70.36;99474.06;105332;1257;72789;-22
2023/08/17 01:20:20;;;;;;;8.50;5.10;;;;;;;22.25;68.96;99470.83;105495;1257;61160;-23
2023/08/17 01:22:49;;;;;;;6.60;5.20;;;;;;;22.19;68.76;99469.96;105518;1256;61174;-23
2023/08/17 01:25:16;;;;;;;6.20;5.60;;;;;;;22.02;68.97;99470.51;105661;1257;72709;-22
2023/08/17 01:27:45;;;;;;;7.00;5.80;;;;;;;21.82;69.39;99473.52;105598;1258;74386;-23
2023/08/17 01:30:14;;;;;;;6.30;5.50;;;;;;;21.60;69.93;99472.63;105292;1257;71234;-22
2023/08/17 01:32:54;;;;;;;7.00;5.90;;;;;;;21.37;70.57;99470.68;105571;1256;61153;-23
2023/08/17 01:35:30;;;;;;;6.30;4.50;;;;;;;21.19;71.47;99472.55;105333;1256;61231;-22
2023/08/17 01:38:06;;;;;;;7.00;5.20;;;;;;;21.68;71.24;99471.12;105306;1264;71732;-23
2023/08/17 01:40:33;;;;;;;7.60;5.10;;;;;;;22.05;70.10;99471.10;105311;1262;73479;-22
2023/08/17 01:43:01;;;;;;;5.60;5.00;;;;;;;22.00;69.79;99472.21;105593;1256;72581;-22
2023/08/17 01:45:28;;;;;;;8.20;5.40;;;;;;;21.79;70.14;99475.37;105321;1258;61224;-23
2023/08/17 01:47:55;;;;;;;6.20;5.50;;;;;;;21.54;70.91;99472.92;105547;1258;61099;-23
2023/08/17 01:50:22;;;;;;;6.60;6.00;;;;;;;21.25;71.97;99470.34;105586;1257;73474;-23
2023/08/17 01:52:51;;;;;;;5.80;5.30;;;;;;;21.03;72.55;99472.66;105589;1256;74354;-22
2023/08/17 01:55:21;;;;;;;5.10;4.20;;;;;;;20.84;73.20;99473.09;105616;1258;71227;-22
2023/08/17 01:57:48;;;;;;;6.00;4.40;;;;;;;21.23;72.91;99470.10;105285;1256;61038;-23
2023/08/17 02:00:15;;;;;;;5.20;4.50;;;;;;;21.74;70.89;99468.30;105243;1260;61108;-23
2023/08/17 02:02:42;;;;;;;10.60;5.20;;;;;;;21.76;70.44;99471.52;105427;1257;74331;-23
2023/08/17 02:05:11;;;;;;;11.00;6.10;;;;;;;21.54;70.56;99469.59;105596;1260;74369;-22
2023/08/17 02:07:38;;;;;;;6.00;5.40;;;;;;;21.30;71.10;99474.22;105383;1259;72611;-22
2023/08/17 02:10:06;;;;;;;6.20;5.60;;;;;;;21.06;71.17;99475.50;105179;1256;61087;-23
2023/08/17 02:12:33;;;;;;;6.70;5.90;;;;;;;20.83;71.38;99478.36;105403;1257;61186;-22
2023/08/17 02:14:59;;;;;;;9.40;6.00;;;;;;;20.58;71.70;99482.16;105585;1257;73815;-23
2023/08/17 02:17:27;;;;;;;5.20;3.20;;;;;;;20.34;72.68;99486.13;105570;1260;74454;-22
2023/08/17 02:19:54;;;;;;;4.70;4.30;;;;;;;20.72;73.02;99484.34;105530;1259;72658;-22
2023/08/17 02:22:21;;;;;;;7.90;5.40;;;;;;;21.17;71.86;99483.27;105313;1256;61122;-22
2023/08/17 02:24:48;;;;;;;5.60;5.00;;;;;;;21.20;71.02;99481.43;105669;1258;61161;-22
2023/08/17 02:27:15;;;;;;;9.30;5.10;;;;;;;21.00;72.08;99480.64;105626;1257;73863;-22
2023/08/17 02:29:42;;;;;;;11.50;5.90;;;;;;;20.70;73.15;99484.23;105599;1257;74034;-22
2023/08/17 02:32:10;;;;;;;6.90;5.90;;;;;;;20.44;73.69;99487.94;105599;1256;72644;-22
2023/08/17 02:34:37;;;;;;;7.30;6.10;;;;;;;20.25;74.21;99494.21;105524;1259;61060;-22
2023/08/17 02:37:03;;;;;;;7.70;4.50;;;;;;;20.08;75.19;99493.02;105616;1259;61123;-23
2023/08/17 02:39:30;;;;;;;10.50;4.30;;;;;;;20.47;75.61;99493.79;105644;1257;73881;-22
2023/08/17 02:41:57;;;;;;;7.70;4.50;;;;;;;20.94;73.41;99487.81;105913;1256;74192;-23
2023/08/17 02:44:24;;;;;;;5.30;4.80;;;;;;;21.01;72.10;99487.94;105887;1253;72708;-22
2023/08/17 02:46:51;;;;;;;9.30;5.40;;;;;;;20.86;71.93;99486.39;105907;1253;61166;-23
2023/08/17 02:49:18;;;;;;;6.20;5.40;;;;;;;20.65;72.18;99489.07;105883;1253;61094;-22
2023/08/17 02:51:45;;;;;;;6.30;5.40;;;;;;;20.41;73.01;99488.24;105922;1256;73842;-23
2023/08/17 02:54:12;;;;;;;9.70;6.10;;;;;;;20.15;74.02;99490.25;105886;1253;74237;-22
2023/08/17 02:56:39;;;;;;;8.70;4.10;;;;;;;19.94;74.51;99487.15;105913;1254;72765;-22
2023/08/17 02:59:06;;;;;;;5.50;4.30;;;;;;;20.32;74.80;99485.42;105773;1253;61141;-22
2023/08/17 03:01:35;;;;;;;6.40;4.50;;;;;;;20.79;73.29;99484.69;105873;1257;61152;-22
2023/08/17 03:04:02;;;;;;;5.70;4.90;;;;;;;20.77;73.24;99483.77;105874;1253;73751;-23
2023/08/17 03:06:29;;;;;;;5.10;4.50;;;;;;;20.55;73.71;99484.10;105906;1256;74319;-22
2023/08/17 03:08:55;;;;;;;5.60;5.10;;;;;;;20.28;74.67;99483.11;105859;1255;72681;-23
2023/08/17 03:11:22;;;;;;;10.50;6.10;;;;;;;20.02;75.61;99488.33;105889;1253;61879;-23
2023/08/17 03:13:49;;;;;;;6.70;6.00;;;;;;;19.80;75.94;99491.55;105853;1256;61087;-23
2023/08/17 03:16:16;;;;;;;8.50;3.80;;;;;;;19.68;75.84;99491.61;105864;1254;73870;-23
2023/08/17 03:18:44;;;;;;;5.40;4.30;;;;;;;20.18;75.91;99493.59;105802;1253;74070;-23
2023/08/17 03:21:12;;;;;;;7.70;6.20;;;;;;;20.74;74.27;99490.55;105944;1253;71237;-22
2023/08/17 03:23:39;;;;;;;7.00;5.50;;;;;;;20.92;73.43;99486.15;105784;1253;61131;-22
2023/08/17 03:26:06;;;;;;;10.00;6.30;;;;;;;20.91;72.90;99488.58;105767;1253;61049;-23
2023/08/17 03:28:33;;;;;;;7.80;7.00;;;;;;;20.83;73.23;99489.27;105970;1254;72665;-22
2023/08/17 03:31:00;;;;;;;8.30;7.30;;;;;;;20.75;73.88;99497.94;105859;1253;73128;-23
2023/08/17 03:33:27;;;;;;;5.30;4.70;;;;;;;20.71;74.25;99495.87;105764;1253;72434;-23
2023/08/17 03:35:54;;;;;;;10.40;5.60;;;;;;;21.22;72.69;99493.27;105786;1259;61125;-23
2023/08/17 03:38:21;;;;;;;8.60;5.30;;;;;;;21.89;70.29;99493.95;105423;1261;61053;-23
2023/08/17 03:40:48;;;;;;;6.40;5.40;;;;;;;22.17;69.03;99489.36;105838;1256;73671;-22
2023/08/17 03:43:15;;;;;;;6.60;5.30;;;;;;;22.23;68.44;99491.13;105702;1258;74374;-22
2023/08/17 03:45:42;;;;;;;7.40;5.80;;;;;;;22.24;68.18;99490.28;105774;1253;72509;-23
2023/08/17 03:48:09;;;;;;;20.80;12.60;;;;;;;22.20;68.22;99487.76;105760;1253;61056;-22
2023/08/17 03:50:37;;;;;;;8.10;6.10;;;;;;;22.23;68.07;99482.08;105773;1253;61195;-22
2023/08/17 03:53:04;;;;;;;14.50;9.70;;;;;;;22.26;67.85;99484.54;105941;1256;72453;-23
2023/08/17 03:55:32;;;;;;;9.60;5.20;;;;;;;22.34;67.53;99480.40;105884;1253;74590;-22
2023/08/17 03:57:59;;;;;;;5.30;3.80;;;;;;;22.46;67.46;99480.20;105841;1253;72471;-22
2023/08/17 04:00:26;;;;;;;7.10;4.70;;;;;;;23.10;65.48;99478.02;105504;1253;61135;-23
2023/08/17 04:02:55;;;;;;;5.30;4.00;;;;;;;23.86;63.56;99477.37;105603;1259;61110;-23
2023/08/17 04:05:22;;;;;;;7.10;4.50;;;;;;;24.21;62.88;99479.08;105857;1253;73672;-23
2023/08/17 04:07:48;;;;;;;7.40;4.50;;;;;;;24.30;61.34;99479.39;105901;1254;74282;-23
2023/08/17 04:10:15;;;;;;;9.70;4.30;;;;;;;24.31;61.18;99482.55;105925;1256;72557;-22
2023/08/17 04:12:42;;;;;;;7.50;5.10;;;;;;;24.39;61.36;99479.44;105888;1253;61152;-22
2023/08/17 04:15:10;;;;;;;11.70;5.10;;;;;;;24.41;61.03;99479.36;105884;1256;61177;-23
2023/08/17 04:17:36;;;;;;;11.10;4.80;;;;;;;24.36;60.58;99479.31;105878;1253;73520;-23
2023/08/17 04:20:04;;;;;;;6.70;4.50;;;;;;;24.34;60.64;99478.16;105843;1254;74160;-22
2023/08/17 04:22:32;;;;;;;7.30;5.30;;;;;;;24.23;60.36;99484.15;105679;1253;73196;-23
2023/08/17 04:24:59;;;;;;;8.30;4.80;;;;;;;24.16;61.03;99487.52;105729;1253;61199;-22
2023/08/17 04:27:25;;;;;;;6.40;4.60;;;;;;;24.27;61.02;99488.65;105679;1254;61146;-23
2023/08/17 04:29:53;;;;;;;6.20;5.00;;;;;;;24.38;60.63;99485.09;105801;1253;73800;-23
2023/08/17 04:32:20;;;;;;;7.20;4.80;;;;;;;24.47;60.65;99483.29;105825;1259;74164;-22
2023/08/17 04:34:48;;;;;;;9.40;4.70;;;;;;;24.48;59.75;99486.89;105806;1257;71837;-23
2023/08/17 04:37:15;;;;;;;5.00;4.20;;;;;;;24.48;60.35;99485.82;105842;1259;61281;-23
2023/08/17 04:39:43;;;;;;;8.00;4.50;;;;;;;24.61;59.78;99489.21;105793;1253;61146;-23
2023/08/17 04:42:10;;;;;;;5.80;4.50;;;;;;;24.63;59.09;99493.63;105802;1254;73939;-23
2023/08/17 04:44:37;;;;;;;4.90;4.20;;;;;;;24.65;59.26;99492.69;105885;1256;74428;-23
2023/08/17 04:47:05;;;;;;;5.60;4.10;;;;;;;24.68;59.59;99496.02;105891;1253;72528;-23
2023/08/17 04:49:32;;;;;;;6.30;4.30;;;;;;;24.69;58.71;99495.68;105713;1253;61136;-23
2023/08/17 04:51:59;;;;;;;6.60;4.00;;;;;;;24.74;58.97;99496.01;105807;1257;61138;-23
2023/08/17 04:54:27;;;;;;;5.40;4.50;;;;;;;24.83;58.35;99491.86;105822;1253;73629;-22
2023/08/17 04:56:56;;;;;;;8.10;4.10;;;;;;;24.85;58.66;99493.54;105764;1253;74296;-22
2023/08/17 04:59:23;;;;;;;6.70;4.00;;;;;;;25.06;58.34;99494.84;105748;1254;72336;-22
2023/08/17 05:01:49;;;;;;;6.40;4.10;;;;;;;25.31;57.88;99492.17;105796;1253;61179;-23
2023/08/17 05:04:16;;;;;;;5.60;4.10;;;;;;;25.49;56.72;99495.04;105754;1253;61570;-22
2023/08/17 05:06:44;;;;;;;9.30;4.70;;;;;;;25.55;56.12;99493.00;105906;1253;74312;-22
2023/08/17 05:09:11;;;;;;;4.90;4.30;;;;;;;25.63;56.70;99497.39;105893;1256;74265;-23
2023/08/17 05:11:39;;;;;;;6.20;4.90;;;;;;;25.81;56.61;99492.24;105933;1254;72681;-23
2023/08/17 05:14:06;;;;;;;7.30;4.10;;;;;;;26.06;55.76;99492.90;105902;1252;61032;-23
2023/08/17 05:16:33;;;;;;;6.30;4.20;;;;;;;26.25;55.42;99488.17;105884;1256;61094;-23
2023/08/17 05:19:00;;;;;;;11.10;4.30;;;;;;;26.40;54.46;99489.34;105860;1254;73820;-23
2023/08/17 05:21:28;;;;;;;7.10;4.10;;;;;;;26.45;54.38;99494.23;105894;1253;74239;-23
2023/08/17 05:23:55;;;;;;;5.90;3.80;;;;;;;26.58;54.32;99495.02;105745;1254;71594;-23
2023/08/17 05:26:22;;;;;;;4.50;4.00;;;;;;;26.71;53.93;99496.86;105671;1253;61228;-22
2023/08/17 05:28:49;;;;;;;3.90;3.50;;;;;;;26.85;53.65;99497.82;105716;1251;61726;-22
2023/08/17 05:31:16;;;;;;;5.20;3.90;;;;;;;26.99;53.24;99494.70;105822;1254;73885;-22
2023/08/17 05:33:46;;;;;;;4.20;3.60;;;;;;;27.06;52.46;99494.91;105813;1258;74618;-22
2023/08/17 05:36:14;;;;;;;5.10;3.30;;;;;;;27.15;52.46;99493.14;105822;1253;72742;-23
2023/08/17 05:38:41;;;;;;;6.40;3.70;;;;;;;27.14;51.63;99495.30;105780;1255;61174;-23
2023/08/17 05:41:08;;;;;;;4.80;3.80;;;;;;;27.21;52.28;99489.61;105734;1253;61828;-23
2023/08/17 05:43:35;;;;;;;4.80;3.40;;;;;;;27.36;52.21;99493.65;105809;1253;74367;-23
2023/08/17 05:46:02;;;;;;;4.50;3.50;;;;;;;27.50;51.64;99488.74;105894;1255;74549;-23
2023/08/17 05:48:30;;;;;;;7.90;3.50;;;;;;;27.59;51.51;99487.80;105658;1255;72732;-23
2023/08/17 05:50:57;;;;;;;6.30;3.40;;;;;;;27.59;50.70;99488.42;105602;1253;61801;-23
2023/08/17 05:53:24;;;;;;;7.50;3.40;;;;;;;27.52;51.01;99485.34;105710;1256;61161;-23
2023/08/17 05:55:51;;;;;;;4.80;3.50;;;;;;;27.40;51.09;99487.60;105878;1253;73738;-23
2023/08/17 05:58:18;;;;;;;3.50;3.20;;;;;;;27.07;51.04;99489.48;105926;1253;74325;-23
2023/08/17 06:00:45;;;;;;;4.40;2.80;;;;;;;26.94;51.58;99491.77;105582;1254;73033;-22
2023/08/17 06:03:12;;;;;;;4.30;2.60;;;;;;;26.87;51.78;99490.98;105589;1259;61138;-23
2023/08/17 06:05:40;;;;;;;5.20;2.70;;;;;;;26.82;51.64;99491.48;105562;1256;61144;-23
2023/08/17 06:08:07;;;;;;;3.50;2.90;;;;;;;26.89;51.59;99494.30;105582;1253;74015;-23
2023/08/17 06:10:35;;;;;;;5.00;2.50;;;;;;;26.87;51.19;99493.77;105619;1254;74416;-23
2023/08/17 06:13:02;;;;;;;3.10;2.40;;;;;;;26.89;51.18;99491.83;105508;1254;72672;-22
2023/08/17 06:15:29;;;;;;;4.30;2.60;;;;;;;26.88;50.96;99493.27;105836;1253;61077;-23
2023/08/17 06:17:56;;;;;;;3.20;2.70;;;;;;;26.81;50.40;99492.02;105661;1254;61228;-23
2023/08/17 06:20:23;;;;;;;5.70;2.80;;;;;;;26.64;50.88;99494.33;105812;1254;73861;-22
2023/08/17 06:22:50;;;;;;;4.80;2.70;;;;;;;26.61;51.13;99492.30;105862;1253;74138;-23
2023/08/17 06:25:17;;;;;;;5.20;2.70;;;;;;;26.55;50.62;99491.75;105772;1253;72609;-23
2023/08/17 06:27:44;;;;;;;3.20;2.40;;;;;;;26.52;51.02;99495.80;105554;1254;61040;-22
2023/08/17 06:30:12;;;;;;;3.10;2.50;;;;;;;26.59;51.33;99494.47;105515;1259;61194;-22
2023/08/17 06:32:39;;;;;;;5.00;2.60;;;;;;;26.70;51.27;99494.40;105665;1253;73747;-23
2023/08/17 06:35:07;;;;;;;2.80;2.20;;;;;;;26.83;51.12;99493.61;105528;1256;74111;-22
2023/08/17 06:37:35;;;;;;;3.20;2.40;;;;;;;26.95;51.17;99494.41;105558;1254;72614;-22
2023/08/17 06:40:05;;;;;;;2.70;2.40;;;;;;;27.03;50.19;99494.02;105631;1252;61056;-22
2023/08/17 06:42:32;;;;;;;6.50;2.60;;;;;;;27.04;50.14;99498.10;105397;1258;61167;-23
2023/08/17 06:44:59;;;;;;;4.00;2.40;;;;;;;27.05;50.08;99498.77;105669;1253;73645;-23
2023/08/17 06:47:26;;;;;;;3.90;2.40;;;;;;;27.15;49.96;99498.97;105810;1254;74324;-23
2023/08/17 06:49:54;;;;;;;3.10;2.30;;;;;;;27.30;49.95;99498.84;105760;1254;72749;-23
2023/08/17 06:52:22;;;;;;;4.30;2.50;;;;;;;27.44;49.45;99500.14;105328;1257;61087;-22
2023/08/17 06:54:48;;;;;;;3.00;2.20;;;;;;;27.42;49.00;99499.64;105662;1253;61891;-23
2023/08/17 06:57:15;;;;;;;3.70;2.50;;;;;;;27.30;49.24;99502.10;105898;1254;73859;-23
2023/08/17 06:59:45;;;;;;;4.30;2.50;;;;;;;27.35;48.67;99501.46;105850;1253;74312;-23
2023/08/17 07:02:12;;;;;;;7.40;2.40;;;;;;;27.31;48.65;99501.75;105435;1258;72488;-23
2023/08/17 07:04:39;;;;;;;3.10;2.50;;;;;;;27.39;49.00;99499.66;105731;1254;61133;-22
2023/08/17 07:07:06;;;;;;;19.50;3.80;;;;;;;27.51;49.12;99499.75;105716;1253;61154;-23
2023/08/17 07:09:33;;;;;;;7.50;2.50;;;;;;;27.63;48.92;99496.27;105674;1253;73929;-22
2023/08/17 07:12:00;;;;;;;3.20;2.70;;;;;;;27.69;48.84;99494.83;105746;1254;74944;-23
2023/08/17 07:14:27;;;;;;;4.60;2.70;;;;;;;27.85;47.83;99501.23;105841;1256;72433;-22
2023/08/17 07:16:55;;;;;;;2.10;1.90;;;;;;;27.86;47.95;99500.75;105784;1253;61113;-22
2023/08/17 07:19:22;;;;;;;3.20;2.20;;;;;;;27.94;47.48;99503.08;105724;1263;61093;-22
2023/08/17 07:22:09;;;;;;;3.00;2.00;;;;;;;27.91;46.68;99504.27;105400;1254;73728;-22
2023/08/17 07:24:36;;;;;;;3.70;2.00;;;;;;;27.85;46.79;99503.11;105848;1256;74390;-22
2023/08/17 07:27:03;;;;;;;3.00;2.00;;;;;;;27.83;45.93;99502.16;105678;1256;72639;-22
2023/08/17 07:29:31;;;;;;;3.10;2.20;;;;;;;27.63;45.93;99501.90;105560;1253;61056;-22
2023/08/17 07:32:01;;;;;;;6.10;2.30;;;;;;;27.68;47.22;99501.45;105902;1256;61170;-22
2023/08/17 07:34:30;;;;;;;2.20;1.90;;;;;;;27.86;45.75;99502.85;105915;1253;73638;-22
2023/08/17 07:36:58;;;;;;;5.10;2.00;;;;;;;27.91;44.30;99500.31;105840;1253;74311;-22
2023/08/17 07:39:25;;;;;;;2.50;2.20;;;;;;;27.99;44.68;99496.08;105932;1254;72565;-22
2023/08/17 07:41:52;;;;;;;4.90;2.30;;;;;;;28.09;44.87;99500.54;105921;1255;61077;-22
2023/08/17 07:44:19;;;;;;;3.30;2.30;;;;;;;28.20;44.54;99499.46;105866;1252;61130;-22
2023/08/17 07:46:45;;;;;;;3.60;2.20;;;;;;;28.15;44.08;99497.25;105630;1253;73758;-22
2023/08/17 07:49:12;;;;;;;2.60;2.20;;;;;;;28.20;44.56;99496.07;105675;1256;74286;-22
2023/08/17 07:51:58;;;;;;;4.30;2.10;;;;;;;28.60;44.52;99498.09;105577;1259;71661;-23
2023/08/17 07:54:25;;;;;;;3.50;2.00;;;;;;;28.79;43.22;99495.41;105803;1256;61147;-22
2023/08/17 07:56:52;;;;;;;3.40;2.10;;;;;;;28.88;42.74;99495.61;105922;1255;61185;-22
2023/08/17 07:59:19;;;;;;;2.40;1.70;;;;;;;29.04;43.31;99492.66;105921;1256;73909;-22
2023/08/17 08:01:46;;;;;;;4.00;1.90;;;;;;;29.44;42.58;99492.46;105879;1255;74118;-22
2023/08/17 08:04:13;;;;;;;2.50;2.10;;;;;;;29.70;41.13;99490.47;105577;1256;72632;-23
2023/08/17 08:06:40;;;;;;;2.40;1.90;;;;;;;29.42;40.83;99495.55;105852;1256;61134;-22
2023/08/17 08:09:07;;;;;;;5.00;2.20;;;;;;;29.44;41.69;99495.48;105851;1254;61177;-22
2023/08/17 08:11:34;;;;;;;2.20;2.00;;;;;;;29.66;41.13;99492.42;105787;1255;73675;-22
2023/08/17 08:14:01;;;;;;;3.40;2.30;;;;;;;29.73;41.27;99493.16;105888;1256;74455;-23
2023/08/17 08:16:30;;;;;;;4.00;2.20;;;;;;;30.03;40.82;99487.70;105749;1256;72662;-22
2023/08/17 08:18:57;;;;;;;2.40;2.20;;;;;;;30.03;40.29;99489.45;105704;1253;61282;-22
2023/08/17 08:21:24;;;;;;;31.60;17.70;;;;;;;29.84;40.67;99484.70;105541;1256;61158;-22
2023/08/17 08:23:51;;;;;;;4.50;3.00;;;;;;;29.50;41.21;99484.69;105544;1256;73694;-22
2023/08/17 08:26:18;;;;;;;2.80;2.40;;;;;;;29.80;40.42;99483.45;105587;1256;74329;-22
2023/08/17 08:28:45;;;;;;;3.00;2.50;;;;;;;29.96;40.52;99482.83;105801;1255;73116;-22
2023/08/17 08:31:12;;;;;;;3.30;2.10;;;;;;;30.02;40.03;99482.40;105614;1259;61069;-23
2023/08/17 08:33:39;;;;;;;3.90;2.20;;;;;;;30.14;40.14;99479.85;105696;1256;61173;-22
2023/08/17 08:36:06;;;;;;;5.30;2.10;;;;;;;30.43;39.38;99480.50;105569;1253;65098;-22
2023/08/17 08:38:33;;;;;;;3.10;2.00;;;;;;;30.72;38.77;99476.09;105747;1256;65554;-22
2023/08/17 08:41:02;;;;;;;2.30;1.70;;;;;;;30.63;38.06;99475.31;105845;1256;64028;-23
2023/08/17 08:43:29;;;;;;;2.70;1.90;;;;;;;30.51;38.10;99478.58;105429;1253;61059;-22
2023/08/17 08:45:56;;;;;;;3.20;2.10;;;;;;;30.09;38.48;99475.64;105868;1255;62982;-23
2023/08/17 08:48:23;;;;;;;3.30;2.10;;;;;;;29.83;39.42;99477.00;105613;1253;73930;-22
2023/08/17 08:50:52;;;;;;;4.80;2.20;;;;;;;29.94;39.06;99473.00;105678;1259;74919;-22
2023/08/17 08:53:21;;;;;;;5.00;3.10;;;;;;;29.98;39.27;99473.73;105512;1254;72652;-22
2023/08/17 08:55:53;;;;;;;3.60;2.10;;;;;;;29.90;39.16;99474.77;105731;1259;61180;-22
2023/08/17 08:58:20;;;;;;;5.50;2.00;;;;;;;30.26;38.26;99477.13;105654;1259;61259;-23
2023/08/17 09:00:49;;;;;;;4.40;1.80;;;;;;;30.37;37.43;99480.04;105726;1261;73691;-22
2023/08/17 09:03:17;;;;;;;5.40;2.10;;;;;;;30.58;37.69;99476.60;105850;1258;65497;-23
2023/08/17 09:05:45;;;;;;;3.70;1.80;;;;;;;30.78;37.53;99473.96;105925;1256;64099;-22
2023/08/17 09:08:13;;;;;;;3.10;1.90;;;;;;;30.94;37.43;99472.07;105539;1254;61000;-22
2023/08/17 09:10:44;;;;;;;2.30;2.00;;;;;;;31.29;36.92;99469.91;105701;1251;62751;-22
2023/08/17 09:13:11;;;;;;;3.70;2.10;;;;;;;30.80;37.18;99469.02;105681;1259;65273;-22
2023/08/17 09:15:38;;;;;;;3.20;1.80;;;;;;;31.11;37.02;99470.23;105918;1256;65643;-22
2023/08/17 09:18:07;;;;;;;4.50;2.00;;;;;;;31.38;36.63;99470.77;105909;1254;64015;-23
2023/08/17 09:20:42;;;;;;;4.60;2.00;;;;;;;31.38;36.71;99469.59;105688;1256;61058;-22
2023/08/17 09:23:22;;;;;;;5.00;2.00;;;;;;;31.58;36.70;99464.95;105503;1253;61052;-23
2023/08/17 09:25:51;;;;;;;3.50;2.10;;;;;;;31.29;36.77;99468.89;105588;1260;65239;-22
2023/08/17 09:28:19;;;;;;;5.40;1.90;;;;;;;31.35;36.68;99470.20;105736;1258;65716;-22
2023/08/17 09:30:56;;;;;;;18.10;5.10;;;;;;;31.65;35.90;99464.69;105649;1259;63866;-22
2023/08/17 09:33:24;;;;;;;12.80;3.00;;;;;;;31.29;35.99;99467.85;105355;1258;61111;-22
2023/08/17 09:35:59;;;;;;;3.50;2.20;;;;;;;31.17;36.44;99469.08;105614;1258;61175;-23
2023/08/17 09:38:27;;;;;;;2.70;2.20;;;;;;;30.19;38.32;99462.50;105683;1256;72253;-21
2023/08/17 09:40:54;;;;;;;3.70;2.00;;;;;;;30.51;38.13;99461.55;105761;1263;74281;-22
2023/08/17 09:43:21;;;;;;;13.50;5.90;;;;;;;30.70;37.65;99460.30;105524;1253;63829;-21
2023/08/17 09:45:49;;;;;;;9.60;3.70;;;;;;;29.90;38.28;99458.60;105686;1256;61242;-22
2023/08/17 09:48:17;;;;;;;14.10;5.40;;;;;;;30.04;37.95;99454.44;105625;1259;61151;-22
2023/08/17 09:50:45;;;;;;;4.00;2.00;;;;;;;30.78;35.73;99457.89;105649;1256;73617;-21
2023/08/17 09:53:17;;;;;;;3.90;2.10;;;;;;;31.06;35.21;99456.20;105592;1256;64473;-21
2023/08/17 09:55:45;;;;;;;3.60;1.70;;;;;;;31.40;35.13;99457.66;105702;1256;63790;-21
2023/08/17 09:58:15;;;;;;;3.70;2.20;;;;;;;31.60;34.07;99459.73;105626;1254;61036;-22
2023/08/17 10:00:49;;;;;;;7.50;1.90;;;;;;;31.41;34.96;99460.13;103504;1259;3052679;-21
2023/08/17 10:03:19;;;;;;;5.80;2.30;;;;;;;31.86;35.01;99454.66;105746;1258;63703;-21
2023/08/17 10:05:49;;;;;;;2.40;1.80;;;;;;;32.43;34.34;99450.61;105667;1258;65684;-22
2023/08/17 10:08:18;;;;;;;3.00;1.90;;;;;;;32.19;33.87;99450.98;105715;1258;65350;-21
2023/08/17 10:10:46;;;;;;;2.70;2.10;;;;;;;32.12;33.99;99450.94;105630;1258;61116;-21
2023/08/17 10:13:32;;;;;;;49.50;29.80;;;;;;;32.00;33.41;99448.50;105935;1256;61170;-22
2023/08/17 10:16:03;;;;;;;49.80;28.70;;;;;;;30.52;35.65;99442.91;105698;1260;73877;-22
2023/08/17 10:18:36;;;;;;;4.10;2.90;;;;;;;31.17;34.64;99442.26;105694;1260;65792;-22
2023/08/17 10:21:06;;;;;;;;;;;;;;;31.74;34.11;99442.65;105710;1254;63955;-22
2023/08/17 10:23:33;;;;;;;3.40;2.10;;;;;;;32.46;32.87;99438.83;105678;1254;61119;-22
2023/08/17 10:26:02;;;;;;;5.90;2.50;;;;;;;32.21;32.90;99435.38;105739;1257;62078;-22
2023/08/17 10:28:31;;;;;;;5.60;3.90;;;;;;;31.75;33.71;99431.95;105927;1255;65028;-21
2023/08/17 10:30:58;;;;;;;28.70;12.00;;;;;;;32.25;33.40;99432.98;105756;1261;65700;-22
2023/08/17 10:33:25;;;;;;;7.30;3.40;;;;;;;32.00;33.46;99427.69;105676;1254;63926;-22
2023/08/17 10:35:52;;;;;;;5.00;2.20;;;;;;;32.50;33.16;99424.98;105639;1254;60985;-22
2023/08/17 10:38:18;;;;;;;3.30;1.90;;;;;;;33.12;31.65;99424.02;105530;1254;61122;-23
2023/08/17 10:40:46;;;;;;;3.60;2.00;;;;;;;33.34;30.92;99425.48;105592;1254;64902;-22
2023/08/17 10:43:13;;;;;;;2.10;1.90;;;;;;;33.46;30.73;99425.25;105540;1255;67660;-21
2023/08/17 10:45:43;;;;;;;3.70;2.20;;;;;;;33.30;31.30;99420.03;105792;1255;63866;-22
2023/08/17 10:48:10;;;;;;;2.30;1.90;;;;;;;33.54;31.80;99416.02;105633;1254;61126;-22
2023/08/17 10:50:38;;;;;;;4.40;2.00;;;;;;;34.05;30.95;99410.19;105594;1257;61123;-22
2023/08/17 10:53:12;;;;;;;2.40;1.80;;;;;;;34.19;30.71;99412.49;105605;1261;63950;-22
2023/08/17 10:55:40;;;;;;;4.90;2.00;;;;;;;34.38;30.41;99411.48;105601;1260;65799;-22
2023/08/17 10:58:13;;;;;;;3.90;2.10;;;;;;;34.71;29.89;99410.63;105713;1258;63865;-22
2023/08/17 11:00:44;;;;;;;17.80;6.60;;;;;;;34.89;29.20;99410.70;105633;1254;60991;-22
2023/08/17 11:03:22;;;;;;;7.10;3.50;;;;;;;34.24;29.77;99405.77;105770;1256;61113;-22
2023/08/17 11:05:56;;;;;;;5.40;2.20;;;;;;;34.26;30.02;99406.65;105641;1259;65415;-22
2023/08/17 11:08:23;;;;;;;3.00;2.10;;;;;;;34.13;30.13;99403.37;105641;1256;64761;-22
2023/08/17 11:10:59;;;;;;;4.60;2.10;;;;;;;34.09;30.11;99398.95;105828;1254;64035;-22
2023/08/17 11:13:28;;;;;;;3.60;2.20;;;;;;;34.38;30.14;99402.73;105551;1256;61113;-22
2023/08/17 11:15:55;;;;;;;2.30;2.00;;;;;;;34.60;29.94;99397.32;105637;1257;61129;-24
2023/08/17 11:18:22;;;;;;;2.70;1.60;;;;;;;34.84;29.43;99398.99;105774;1254;65000;-24
2023/08/17 11:20:49;;;;;;;2.00;1.70;;;;;;;34.81;29.44;99398.20;105876;1255;65711;-22
2023/08/17 11:23:16;;;;;;;1.90;1.60;;;;;;;34.50;29.02;99400.27;105668;1255;64133;-22
2023/08/17 11:25:43;;;;;;;2.00;1.80;;;;;;;34.36;29.18;99396.30;105860;1253;60998;-22
2023/08/17 11:28:10;;;;;;;4.90;2.10;;;;;;;33.82;29.72;99398.06;105865;1262;61113;-22